sensor_id;sensor_type;location;lat;lon;timestamp;P1;durP1;ratioP1;P2;durP2;ratioP2
79088;SDS011;68489;50.286;9.452;2024-02-15T00:02:01;7.30;;;1.98;;
79088;SDS011;68489;50.286;9.452;2024-02-15T00:04:27;7.80;;;2.42;;
79088;SDS011;68489;50.286;9.452;2024-02-15T00:06:52;5.85;;;1.58;;
79088;SDS011;68489;50.286;9.452;2024-02-15T00:09:17;6.60;;;1.60;;
79088;SDS011;68489;50.286;9.452;2024-02-15T00:11:43;7.50;;;1.70;;
79088;SDS011;68489;50.286;9.452;2024-02-15T00:14:08;7.70;;;2.20;;
79088;SDS011;68489;50.286;9.452;2024-02-15T00:16:34;6.93;;;2.00;;
79088;SDS011;68489;50.286;9.452;2024-02-15T00:19:02;9.98;;;2.35;;
79088;SDS011;68489;50.286;9.452;2024-02-15T00:21:28;6.43;;;2.30;;
79088;SDS011;68489;50.286;9.452;2024-02-15T00:23:53;7.80;;;1.70;;
79088;SDS011;68489;50.286;9.452;2024-02-15T00:26:21;9.50;;;2.35;;
79088;SDS011;68489;50.286;9.452;2024-02-15T00:28:46;9.45;;;2.10;;
79088;SDS011;68489;50.286;9.452;2024-02-15T00:31:12;6.25;;;2.15;;
79088;SDS011;68489;50.286;9.452;2024-02-15T00:33:37;9.57;;;1.90;;
79088;SDS011;68489;50.286;9.452;2024-02-15T00:36:03;7.82;;;2.22;;
79088;SDS011;68489;50.286;9.452;2024-02-15T00:38:31;10.20;;;2.45;;
79088;SDS011;68489;50.286;9.452;2024-02-15T00:40:57;12.02;;;2.15;;
79088;SDS011;68489;50.286;9.452;2024-02-15T00:43:23;7.00;;;1.73;;
79088;SDS011;68489;50.286;9.452;2024-02-15T00:45:49;11.15;;;2.70;;
79088;SDS011;68489;50.286;9.452;2024-02-15T00:48:14;7.65;;;2.63;;
79088;SDS011;68489;50.286;9.452;2024-02-15T00:50:40;9.18;;;2.10;;
79088;SDS011;68489;50.286;9.452;2024-02-15T00:53:05;11.05;;;2.38;;
79088;SDS011;68489;50.286;9.452;2024-02-15T00:55:30;8.25;;;2.42;;
79088;SDS011;68489;50.286;9.452;2024-02-15T00:57:56;8.57;;;1.90;;
79088;SDS011;68489;50.286;9.452;2024-02-15T01:00:21;7.75;;;2.03;;
79088;SDS011;68489;50.286;9.452;2024-02-15T01:02:46;7.68;;;1.55;;
79088;SDS011;68489;50.286;9.452;2024-02-15T01:05:12;8.50;;;2.20;;
79088;SDS011;68489;50.286;9.452;2024-02-15T01:07:40;7.57;;;2.13;;
79088;SDS011;68489;50.286;9.452;2024-02-15T01:10:06;11.20;;;2.25;;
79088;SDS011;68489;50.286;9.452;2024-02-15T01:12:32;7.85;;;2.17;;
79088;SDS011;68489;50.286;9.452;2024-02-15T01:14:58;8.55;;;2.33;;
79088;SDS011;68489;50.286;9.452;2024-02-15T01:17:23;13.50;;;2.30;;
79088;SDS011;68489;50.286;9.452;2024-02-15T01:19:49;6.77;;;1.80;;
79088;SDS011;68489;50.286;9.452;2024-02-15T01:22:14;10.18;;;1.88;;
79088;SDS011;68489;50.286;9.452;2024-02-15T01:24:39;8.23;;;2.37;;
79088;SDS011;68489;50.286;9.452;2024-02-15T01:27:05;8.85;;;2.58;;
79088;SDS011;68489;50.286;9.452;2024-02-15T01:29:32;10.82;;;2.53;;
79088;SDS011;68489;50.286;9.452;2024-02-15T01:31:57;8.80;;;2.22;;
79088;SDS011;68489;50.286;9.452;2024-02-15T01:34:22;8.23;;;2.00;;
79088;SDS011;68489;50.286;9.452;2024-02-15T01:36:48;9.05;;;2.20;;
79088;SDS011;68489;50.286;9.452;2024-02-15T01:39:15;9.02;;;2.88;;
79088;SDS011;68489;50.286;9.452;2024-02-15T01:41:40;7.78;;;2.70;;
79088;SDS011;68489;50.286;9.452;2024-02-15T01:44:05;8.03;;;2.03;;
79088;SDS011;68489;50.286;9.452;2024-02-15T01:46:31;7.13;;;1.83;;
79088;SDS011;68489;50.286;9.452;2024-02-15T01:48:57;9.05;;;2.33;;
79088;SDS011;68489;50.286;9.452;2024-02-15T01:51:23;8.32;;;2.25;;
79088;SDS011;68489;50.286;9.452;2024-02-15T01:53:50;6.55;;;2.03;;
79088;SDS011;68489;50.286;9.452;2024-02-15T01:56:19;8.60;;;2.45;;
79088;SDS011;68489;50.286;9.452;2024-02-15T01:58:45;9.75;;;2.35;;
79088;SDS011;68489;50.286;9.452;2024-02-15T02:01:11;9.43;;;1.80;;
79088;SDS011;68489;50.286;9.452;2024-02-15T02:03:37;7.43;;;2.10;;
79088;SDS011;68489;50.286;9.452;2024-02-15T02:06:04;8.52;;;1.95;;
79088;SDS011;68489;50.286;9.452;2024-02-15T02:08:30;6.95;;;2.05;;
79088;SDS011;68489;50.286;9.452;2024-02-15T02:10:55;8.55;;;2.40;;
79088;SDS011;68489;50.286;9.452;2024-02-15T02:13:20;9.27;;;1.98;;
79088;SDS011;68489;50.286;9.452;2024-02-15T02:15:46;7.18;;;2.10;;
79088;SDS011;68489;50.286;9.452;2024-02-15T02:18:12;7.30;;;2.13;;
79088;SDS011;68489;50.286;9.452;2024-02-15T02:20:37;9.60;;;2.53;;
79088;SDS011;68489;50.286;9.452;2024-02-15T02:23:07;7.45;;;1.70;;
79088;SDS011;68489;50.286;9.452;2024-02-15T02:25:35;8.43;;;2.33;;
79088;SDS011;68489;50.286;9.452;2024-02-15T02:28:00;8.43;;;2.25;;
79088;SDS011;68489;50.286;9.452;2024-02-15T02:30:26;7.70;;;1.65;;
79088;SDS011;68489;50.286;9.452;2024-02-15T02:32:54;10.48;;;2.28;;
79088;SDS011;68489;50.286;9.452;2024-02-15T02:35:21;7.57;;;2.10;;
79088;SDS011;68489;50.286;9.452;2024-02-15T02:37:46;10.05;;;2.17;;
79088;SDS011;68489;50.286;9.452;2024-02-15T02:40:11;6.67;;;2.27;;
79088;SDS011;68489;50.286;9.452;2024-02-15T02:42:46;7.47;;;2.17;;
79088;SDS011;68489;50.286;9.452;2024-02-15T02:45:13;7.65;;;2.10;;
79088;SDS011;68489;50.286;9.452;2024-02-15T02:47:38;6.22;;;1.52;;
79088;SDS011;68489;50.286;9.452;2024-02-15T02:50:04;7.50;;;2.13;;
79088;SDS011;68489;50.286;9.452;2024-02-15T02:52:30;11.10;;;2.17;;
79088;SDS011;68489;50.286;9.452;2024-02-15T02:54:55;7.88;;;2.00;;
79088;SDS011;68489;50.286;9.452;2024-02-15T02:57:21;9.07;;;2.10;;
79088;SDS011;68489;50.286;9.452;2024-02-15T02:59:46;9.93;;;2.95;;
79088;SDS011;68489;50.286;9.452;2024-02-15T03:02:12;7.63;;;2.70;;
79088;SDS011;68489;50.286;9.452;2024-02-15T03:04:38;7.22;;;1.80;;
79088;SDS011;68489;50.286;9.452;2024-02-15T03:07:05;11.15;;;2.65;;
79088;SDS011;68489;50.286;9.452;2024-02-15T03:09:30;7.53;;;2.47;;
79088;SDS011;68489;50.286;9.452;2024-02-15T03:11:56;9.70;;;2.85;;
79088;SDS011;68489;50.286;9.452;2024-02-15T03:14:22;7.68;;;2.22;;
79088;SDS011;68489;50.286;9.452;2024-02-15T03:16:47;9.07;;;2.60;;
79088;SDS011;68489;50.286;9.452;2024-02-15T03:19:12;7.63;;;2.25;;
79088;SDS011;68489;50.286;9.452;2024-02-15T03:21:38;7.90;;;2.83;;
79088;SDS011;68489;50.286;9.452;2024-02-15T03:24:03;9.13;;;2.50;;
79088;SDS011;68489;50.286;9.452;2024-02-15T03:26:29;10.88;;;2.88;;
79088;SDS011;68489;50.286;9.452;2024-02-15T03:29:03;9.07;;;2.50;;
79088;SDS011;68489;50.286;9.452;2024-02-15T03:31:29;9.70;;;2.65;;
79088;SDS011;68489;50.286;9.452;2024-02-15T03:33:56;8.65;;;2.15;;
79088;SDS011;68489;50.286;9.452;2024-02-15T03:36:22;8.05;;;2.50;;
79088;SDS011;68489;50.286;9.452;2024-02-15T03:38:48;10.95;;;2.60;;
79088;SDS011;68489;50.286;9.452;2024-02-15T03:41:13;6.40;;;1.75;;
79088;SDS011;68489;50.286;9.452;2024-02-15T03:43:39;10.27;;;2.75;;
79088;SDS011;68489;50.286;9.452;2024-02-15T03:46:04;12.10;;;2.53;;
79088;SDS011;68489;50.286;9.452;2024-02-15T03:48:32;7.00;;;1.90;;
79088;SDS011;68489;50.286;9.452;2024-02-15T03:50:57;10.90;;;3.07;;
79088;SDS011;68489;50.286;9.452;2024-02-15T03:53:23;13.05;;;3.00;;
79088;SDS011;68489;50.286;9.452;2024-02-15T03:55:49;9.18;;;2.38;;
79088;SDS011;68489;50.286;9.452;2024-02-15T03:58:18;6.82;;;2.38;;
79088;SDS011;68489;50.286;9.452;2024-02-15T04:00:44;8.82;;;2.22;;
79088;SDS011;68489;50.286;9.452;2024-02-15T04:03:10;7.20;;;2.20;;
79088;SDS011;68489;50.286;9.452;2024-02-15T04:05:35;9.85;;;2.13;;
79088;SDS011;68489;50.286;9.452;2024-02-15T04:08:01;9.75;;;2.40;;
79088;SDS011;68489;50.286;9.452;2024-02-15T04:10:27;8.73;;;2.42;;
79088;SDS011;68489;50.286;9.452;2024-02-15T04:12:53;7.90;;;2.20;;
79088;SDS011;68489;50.286;9.452;2024-02-15T04:15:19;7.47;;;2.37;;
79088;SDS011;68489;50.286;9.452;2024-02-15T04:17:44;7.85;;;2.30;;
79088;SDS011;68489;50.286;9.452;2024-02-15T04:20:10;7.90;;;2.58;;
79088;SDS011;68489;50.286;9.452;2024-02-15T04:22:36;7.90;;;2.72;;
79088;SDS011;68489;50.286;9.452;2024-02-15T04:25:06;10.82;;;2.85;;
79088;SDS011;68489;50.286;9.452;2024-02-15T04:27:34;21.73;;;8.57;;
79088;SDS011;68489;50.286;9.452;2024-02-15T04:30:00;13.32;;;4.40;;
79088;SDS011;68489;50.286;9.452;2024-02-15T04:32:29;13.35;;;2.72;;
79088;SDS011;68489;50.286;9.452;2024-02-15T04:34:58;26.23;;;10.63;;
79088;SDS011;68489;50.286;9.452;2024-02-15T04:37:23;11.38;;;3.58;;
79088;SDS011;68489;50.286;9.452;2024-02-15T04:39:52;8.82;;;2.50;;
79088;SDS011;68489;50.286;9.452;2024-02-15T04:42:17;8.37;;;2.33;;
79088;SDS011;68489;50.286;9.452;2024-02-15T04:44:43;17.65;;;2.67;;
79088;SDS011;68489;50.286;9.452;2024-02-15T04:47:09;8.05;;;2.35;;
79088;SDS011;68489;50.286;9.452;2024-02-15T04:49:34;7.78;;;1.58;;
79088;SDS011;68489;50.286;9.452;2024-02-15T04:52:03;8.10;;;2.42;;
79088;SDS011;68489;50.286;9.452;2024-02-15T04:54:29;10.55;;;2.00;;
79088;SDS011;68489;50.286;9.452;2024-02-15T04:56:55;12.82;;;2.65;;
79088;SDS011;68489;50.286;9.452;2024-02-15T04:59:21;9.07;;;2.05;;
79088;SDS011;68489;50.286;9.452;2024-02-15T05:01:50;10.57;;;2.45;;
79088;SDS011;68489;50.286;9.452;2024-02-15T05:04:16;6.78;;;1.83;;
79088;SDS011;68489;50.286;9.452;2024-02-15T05:06:43;8.30;;;2.28;;
79088;SDS011;68489;50.286;9.452;2024-02-15T05:09:10;9.10;;;1.92;;
79088;SDS011;68489;50.286;9.452;2024-02-15T05:11:41;7.95;;;2.33;;
79088;SDS011;68489;50.286;9.452;2024-02-15T05:14:11;8.18;;;1.75;;
79088;SDS011;68489;50.286;9.452;2024-02-15T05:16:37;7.60;;;2.03;;
79088;SDS011;68489;50.286;9.452;2024-02-15T05:19:10;9.32;;;1.52;;
79088;SDS011;68489;50.286;9.452;2024-02-15T05:21:38;6.75;;;1.75;;
79088;SDS011;68489;50.286;9.452;2024-02-15T05:24:04;12.00;;;2.38;;
79088;SDS011;68489;50.286;9.452;2024-02-15T05:26:30;10.45;;;1.95;;
79088;SDS011;68489;50.286;9.452;2024-02-15T05:28:55;5.70;;;1.42;;
79088;SDS011;68489;50.286;9.452;2024-02-15T05:31:21;9.10;;;1.85;;
79088;SDS011;68489;50.286;9.452;2024-02-15T05:33:50;8.40;;;1.98;;
79088;SDS011;68489;50.286;9.452;2024-02-15T05:36:17;7.82;;;2.60;;
79088;SDS011;68489;50.286;9.452;2024-02-15T05:38:49;8.65;;;2.10;;
79088;SDS011;68489;50.286;9.452;2024-02-15T05:41:16;8.32;;;2.00;;
79088;SDS011;68489;50.286;9.452;2024-02-15T05:43:42;6.47;;;1.45;;
79088;SDS011;68489;50.286;9.452;2024-02-15T05:46:08;6.45;;;1.35;;
79088;SDS011;68489;50.286;9.452;2024-02-15T05:48:34;11.50;;;2.22;;
79088;SDS011;68489;50.286;9.452;2024-02-15T05:51:01;13.50;;;4.07;;
79088;SDS011;68489;50.286;9.452;2024-02-15T05:53:26;9.00;;;2.65;;
79088;SDS011;68489;50.286;9.452;2024-02-15T05:55:52;8.32;;;2.60;;
79088;SDS011;68489;50.286;9.452;2024-02-15T05:58:18;8.30;;;2.05;;
79088;SDS011;68489;50.286;9.452;2024-02-15T06:00:43;10.23;;;3.08;;
79088;SDS011;68489;50.286;9.452;2024-02-15T06:03:15;9.85;;;2.92;;
79088;SDS011;68489;50.286;9.452;2024-02-15T06:05:43;9.40;;;2.08;;
79088;SDS011;68489;50.286;9.452;2024-02-15T06:08:10;7.38;;;1.55;;
79088;SDS011;68489;50.286;9.452;2024-02-15T06:10:37;8.88;;;1.73;;
79088;SDS011;68489;50.286;9.452;2024-02-15T06:13:03;10.65;;;1.58;;
79088;SDS011;68489;50.286;9.452;2024-02-15T06:15:29;6.78;;;1.83;;
79088;SDS011;68489;50.286;9.452;2024-02-15T06:17:54;8.88;;;1.85;;
79088;SDS011;68489;50.286;9.452;2024-02-15T06:20:19;10.60;;;2.03;;
79088;SDS011;68489;50.286;9.452;2024-02-15T06:22:46;8.30;;;2.55;;
79088;SDS011;68489;50.286;9.452;2024-02-15T06:25:12;6.57;;;1.48;;
79088;SDS011;68489;50.286;9.452;2024-02-15T06:27:45;9.13;;;1.88;;
79088;SDS011;68489;50.286;9.452;2024-02-15T06:30:11;11.85;;;2.63;;
79088;SDS011;68489;50.286;9.452;2024-02-15T06:32:56;13.00;;;2.92;;
79088;SDS011;68489;50.286;9.452;2024-02-15T06:35:41;10.02;;;2.35;;
79088;SDS011;68489;50.286;9.452;2024-02-15T06:38:26;7.75;;;2.30;;
79088;SDS011;68489;50.286;9.452;2024-02-15T06:41:10;7.05;;;2.25;;
79088;SDS011;68489;50.286;9.452;2024-02-15T06:43:36;10.27;;;2.08;;
79088;SDS011;68489;50.286;9.452;2024-02-15T06:46:02;8.18;;;2.40;;
79088;SDS011;68489;50.286;9.452;2024-02-15T06:48:28;8.45;;;2.53;;
79088;SDS011;68489;50.286;9.452;2024-02-15T06:50:53;8.38;;;2.88;;
79088;SDS011;68489;50.286;9.452;2024-02-15T06:53:19;8.55;;;2.25;;
79088;SDS011;68489;50.286;9.452;2024-02-15T06:55:45;9.43;;;2.95;;
79088;SDS011;68489;50.286;9.452;2024-02-15T06:58:14;7.85;;;2.60;;
79088;SDS011;68489;50.286;9.452;2024-02-15T07:00:41;8.82;;;2.35;;
79088;SDS011;68489;50.286;9.452;2024-02-15T07:03:07;8.55;;;2.30;;
79088;SDS011;68489;50.286;9.452;2024-02-15T07:05:33;13.38;;;3.03;;
79088;SDS011;68489;50.286;9.452;2024-02-15T07:07:58;10.73;;;3.10;;
79088;SDS011;68489;50.286;9.452;2024-02-15T07:10:24;14.70;;;5.22;;
79088;SDS011;68489;50.286;9.452;2024-02-15T07:12:49;15.48;;;4.40;;
79088;SDS011;68489;50.286;9.452;2024-02-15T07:15:15;10.55;;;3.78;;
79088;SDS011;68489;50.286;9.452;2024-02-15T07:17:41;11.70;;;3.65;;
79088;SDS011;68489;50.286;9.452;2024-02-15T07:20:07;9.45;;;3.25;;
79088;SDS011;68489;50.286;9.452;2024-02-15T07:22:35;13.05;;;3.65;;
79088;SDS011;68489;50.286;9.452;2024-02-15T07:25:02;7.72;;;2.40;;
79088;SDS011;68489;50.286;9.452;2024-02-15T07:27:28;10.30;;;2.42;;
79088;SDS011;68489;50.286;9.452;2024-02-15T07:29:53;7.73;;;2.30;;
79088;SDS011;68489;50.286;9.452;2024-02-15T07:32:19;10.18;;;2.75;;
79088;SDS011;68489;50.286;9.452;2024-02-15T07:34:45;8.77;;;2.20;;
79088;SDS011;68489;50.286;9.452;2024-02-15T07:37:13;7.82;;;2.20;;
79088;SDS011;68489;50.286;9.452;2024-02-15T07:39:40;15.10;;;6.03;;
79088;SDS011;68489;50.286;9.452;2024-02-15T07:42:06;11.13;;;4.72;;
79088;SDS011;68489;50.286;9.452;2024-02-15T07:44:33;14.10;;;6.10;;
79088;SDS011;68489;50.286;9.452;2024-02-15T07:47:01;6.43;;;2.35;;
79088;SDS011;68489;50.286;9.452;2024-02-15T07:49:26;4.97;;;1.52;;
79088;SDS011;68489;50.286;9.452;2024-02-15T07:51:52;8.95;;;3.45;;
79088;SDS011;68489;50.286;9.452;2024-02-15T07:54:20;19.17;;;8.30;;
79088;SDS011;68489;50.286;9.452;2024-02-15T07:56:46;4.53;;;1.25;;
79088;SDS011;68489;50.286;9.452;2024-02-15T07:59:13;5.38;;;1.17;;
79088;SDS011;68489;50.286;9.452;2024-02-15T08:01:40;11.02;;;3.15;;
79088;SDS011;68489;50.286;9.452;2024-02-15T08:04:05;7.60;;;1.67;;
79088;SDS011;68489;50.286;9.452;2024-02-15T08:06:33;5.95;;;1.20;;
79088;SDS011;68489;50.286;9.452;2024-02-15T08:08:58;6.60;;;0.70;;
79088;SDS011;68489;50.286;9.452;2024-02-15T08:11:23;5.60;;;1.48;;
79088;SDS011;68489;50.286;9.452;2024-02-15T08:13:51;5.15;;;1.52;;
79088;SDS011;68489;50.286;9.452;2024-02-15T08:16:20;7.20;;;2.28;;
79088;SDS011;68489;50.286;9.452;2024-02-15T08:18:49;4.82;;;1.02;;
79088;SDS011;68489;50.286;9.452;2024-02-15T08:21:17;4.28;;;1.15;;
79088;SDS011;68489;50.286;9.452;2024-02-15T08:23:44;7.45;;;1.40;;
79088;SDS011;68489;50.286;9.452;2024-02-15T08:26:09;4.87;;;1.50;;
79088;SDS011;68489;50.286;9.452;2024-02-15T08:28:38;4.60;;;0.77;;
79088;SDS011;68489;50.286;9.452;2024-02-15T08:31:03;4.35;;;0.90;;
79088;SDS011;68489;50.286;9.452;2024-02-15T08:33:29;6.47;;;0.88;;
79088;SDS011;68489;50.286;9.452;2024-02-15T08:35:55;5.88;;;0.70;;
79088;SDS011;68489;50.286;9.452;2024-02-15T08:38:21;7.55;;;1.08;;
79088;SDS011;68489;50.286;9.452;2024-02-15T08:40:47;3.97;;;0.80;;
79088;SDS011;68489;50.286;9.452;2024-02-15T08:43:13;11.82;;;0.80;;
79088;SDS011;68489;50.286;9.452;2024-02-15T08:45:40;6.70;;;0.57;;
79088;SDS011;68489;50.286;9.452;2024-02-15T08:48:06;3.70;;;0.57;;
79088;SDS011;68489;50.286;9.452;2024-02-15T08:50:32;5.05;;;0.50;;
79088;SDS011;68489;50.286;9.452;2024-02-15T08:52:57;4.90;;;0.67;;
79088;SDS011;68489;50.286;9.452;2024-02-15T08:55:22;5.27;;;0.90;;
79088;SDS011;68489;50.286;9.452;2024-02-15T08:57:52;5.18;;;0.60;;
79088;SDS011;68489;50.286;9.452;2024-02-15T09:00:19;4.22;;;0.73;;
79088;SDS011;68489;50.286;9.452;2024-02-15T09:02:45;3.25;;;0.60;;
79088;SDS011;68489;50.286;9.452;2024-02-15T09:05:11;8.77;;;0.85;;
79088;SDS011;68489;50.286;9.452;2024-02-15T09:07:43;5.53;;;1.00;;
79088;SDS011;68489;50.286;9.452;2024-02-15T09:10:12;4.43;;;0.35;;
79088;SDS011;68489;50.286;9.452;2024-02-15T09:12:39;5.93;;;0.50;;
79088;SDS011;68489;50.286;9.452;2024-02-15T09:15:05;3.30;;;0.68;;
79088;SDS011;68489;50.286;9.452;2024-02-15T09:17:35;3.00;;;0.43;;
79088;SDS011;68489;50.286;9.452;2024-02-15T09:20:13;6.65;;;0.80;;
79088;SDS011;68489;50.286;9.452;2024-02-15T09:25:16;4.28;;;1.52;;
79088;SDS011;68489;50.286;9.452;2024-02-15T09:27:42;2.78;;;0.50;;
79088;SDS011;68489;50.286;9.452;2024-02-15T09:30:08;3.50;;;0.55;;
79088;SDS011;68489;50.286;9.452;2024-02-15T09:32:36;4.07;;;0.40;;
79088;SDS011;68489;50.286;9.452;2024-02-15T09:35:02;4.50;;;0.60;;
79088;SDS011;68489;50.286;9.452;2024-02-15T09:37:28;2.97;;;0.35;;
79088;SDS011;68489;50.286;9.452;2024-02-15T09:39:54;3.50;;;0.50;;
79088;SDS011;68489;50.286;9.452;2024-02-15T09:42:20;4.78;;;0.47;;
79088;SDS011;68489;50.286;9.452;2024-02-15T09:44:46;7.75;;;0.40;;
79088;SDS011;68489;50.286;9.452;2024-02-15T09:47:12;2.78;;;0.50;;
79088;SDS011;68489;50.286;9.452;2024-02-15T09:49:38;2.65;;;0.30;;
79088;SDS011;68489;50.286;9.452;2024-02-15T09:52:07;3.08;;;0.30;;
79088;SDS011;68489;50.286;9.452;2024-02-15T09:54:39;2.85;;;0.35;;
79088;SDS011;68489;50.286;9.452;2024-02-15T09:57:08;4.00;;;0.30;;
79088;SDS011;68489;50.286;9.452;2024-02-15T09:59:35;4.13;;;0.32;;
79088;SDS011;68489;50.286;9.452;2024-02-15T10:02:01;2.95;;;0.30;;
79088;SDS011;68489;50.286;9.452;2024-02-15T10:04:27;3.30;;;0.30;;
79088;SDS011;68489;50.286;9.452;2024-02-15T10:06:52;3.53;;;0.32;;
79088;SDS011;68489;50.286;9.452;2024-02-15T10:09:27;2.33;;;0.20;;
79088;SDS011;68489;50.286;9.452;2024-02-15T10:11:54;2.53;;;0.20;;
79088;SDS011;68489;50.286;9.452;2024-02-15T10:14:21;3.13;;;0.30;;
79088;SDS011;68489;50.286;9.452;2024-02-15T10:16:47;3.25;;;0.20;;
79088;SDS011;68489;50.286;9.452;2024-02-15T10:19:13;2.30;;;0.20;;
79088;SDS011;68489;50.286;9.452;2024-02-15T10:21:40;3.95;;;0.30;;
79088;SDS011;68489;50.286;9.452;2024-02-15T10:24:05;3.28;;;0.20;;
79088;SDS011;68489;50.286;9.452;2024-02-15T10:26:32;2.00;;;0.10;;
79088;SDS011;68489;50.286;9.452;2024-02-15T10:29:06;5.10;;;0.20;;
79088;SDS011;68489;50.286;9.452;2024-02-15T10:31:34;3.53;;;0.30;;
79088;SDS011;68489;50.286;9.452;2024-02-15T10:34:04;2.90;;;0.20;;
79088;SDS011;68489;50.286;9.452;2024-02-15T10:36:30;2.00;;;0.28;;
79088;SDS011;68489;50.286;9.452;2024-02-15T10:39:14;3.97;;;0.13;;
79088;SDS011;68489;50.286;9.452;2024-02-15T10:41:47;1.88;;;0.20;;
79088;SDS011;68489;50.286;9.452;2024-02-15T10:44:17;1.52;;;0.10;;
79088;SDS011;68489;50.286;9.452;2024-02-15T10:46:44;2.08;;;0.10;;
79088;SDS011;68489;50.286;9.452;2024-02-15T10:49:11;3.50;;;0.30;;
79088;SDS011;68489;50.286;9.452;2024-02-15T10:51:38;2.72;;;0.10;;
79088;SDS011;68489;50.286;9.452;2024-02-15T10:54:07;3.65;;;0.28;;
79088;SDS011;68489;50.286;9.452;2024-02-15T10:56:37;1.73;;;0.20;;
79088;SDS011;68489;50.286;9.452;2024-02-15T11:01:52;5.10;;;0.40;;
79088;SDS011;68489;50.286;9.452;2024-02-15T11:04:23;3.65;;;0.20;;
79088;SDS011;68489;50.286;9.452;2024-02-15T11:06:52;3.33;;;0.13;;
79088;SDS011;68489;50.286;9.452;2024-02-15T11:09:20;4.80;;;0.20;;
79088;SDS011;68489;50.286;9.452;2024-02-15T11:11:47;2.55;;;0.25;;
79088;SDS011;68489;50.286;9.452;2024-02-15T11:14:25;1.30;;;0.10;;
79088;SDS011;68489;50.286;9.452;2024-02-15T11:16:53;4.05;;;0.20;;
79088;SDS011;68489;50.286;9.452;2024-02-15T11:22:08;3.95;;;0.20;;
79088;SDS011;68489;50.286;9.452;2024-02-15T11:24:35;3.65;;;0.20;;
79088;SDS011;68489;50.286;9.452;2024-02-15T11:27:02;1.58;;;0.20;;
79088;SDS011;68489;50.286;9.452;2024-02-15T11:35:04;2.78;;;0.35;;
79088;SDS011;68489;50.286;9.452;2024-02-15T11:40:26;3.70;;;0.32;;
79088;SDS011;68489;50.286;9.452;2024-02-15T11:42:57;1.70;;;0.20;;
79088;SDS011;68489;50.286;9.452;2024-02-15T11:45:24;1.27;;;0.35;;
79088;SDS011;68489;50.286;9.452;2024-02-15T11:47:51;2.70;;;0.25;;
79088;SDS011;68489;50.286;9.452;2024-02-15T11:50:18;2.65;;;0.10;;
79088;SDS011;68489;50.286;9.452;2024-02-15T11:52:45;1.65;;;0.10;;
79088;SDS011;68489;50.286;9.452;2024-02-15T11:55:17;1.25;;;0.10;;
79088;SDS011;68489;50.286;9.452;2024-02-15T11:58:00;3.67;;;0.20;;
79088;SDS011;68489;50.286;9.452;2024-02-15T12:00:37;3.50;;;0.10;;
79088;SDS011;68489;50.286;9.452;2024-02-15T12:03:22;4.25;;;0.30;;
79088;SDS011;68489;50.286;9.452;2024-02-15T12:06:07;2.20;;;0.00;;
79088;SDS011;68489;50.286;9.452;2024-02-15T12:08:52;1.17;;;0.20;;
79088;SDS011;68489;50.286;9.452;2024-02-15T12:11:37;1.95;;;0.10;;
79088;SDS011;68489;50.286;9.452;2024-02-15T12:14:21;2.75;;;0.30;;
79088;SDS011;68489;50.286;9.452;2024-02-15T12:17:08;1.73;;;0.10;;
79088;SDS011;68489;50.286;9.452;2024-02-15T12:19:57;1.67;;;0.10;;
79088;SDS011;68489;50.286;9.452;2024-02-15T12:22:32;1.30;;;0.10;;
79088;SDS011;68489;50.286;9.452;2024-02-15T12:27:30;3.03;;;0.50;;
79088;SDS011;68489;50.286;9.452;2024-02-15T12:29:57;2.55;;;0.40;;
79088;SDS011;68489;50.286;9.452;2024-02-15T12:32:23;2.15;;;0.20;;
79088;SDS011;68489;50.286;9.452;2024-02-15T12:34:50;5.40;;;0.30;;
79088;SDS011;68489;50.286;9.452;2024-02-15T12:37:17;3.22;;;0.10;;
79088;SDS011;68489;50.286;9.452;2024-02-15T12:39:45;2.92;;;0.30;;
79088;SDS011;68489;50.286;9.452;2024-02-15T12:42:11;2.25;;;0.20;;
79088;SDS011;68489;50.286;9.452;2024-02-15T12:44:41;1.05;;;0.08;;
79088;SDS011;68489;50.286;9.452;2024-02-15T12:47:16;2.60;;;0.10;;
79088;SDS011;68489;50.286;9.452;2024-02-15T12:49:42;3.45;;;0.15;;
79088;SDS011;68489;50.286;9.452;2024-02-15T12:55:06;2.58;;;0.10;;
79088;SDS011;68489;50.286;9.452;2024-02-15T12:57:35;1.38;;;0.13;;
79088;SDS011;68489;50.286;9.452;2024-02-15T13:00:01;1.05;;;0.10;;
79088;SDS011;68489;50.286;9.452;2024-02-15T13:02:35;2.15;;;0.13;;
79088;SDS011;68489;50.286;9.452;2024-02-15T13:05:02;2.75;;;0.10;;
79088;SDS011;68489;50.286;9.452;2024-02-15T13:07:28;1.85;;;0.20;;
79088;SDS011;68489;50.286;9.452;2024-02-15T13:09:53;3.60;;;0.10;;
79088;SDS011;68489;50.286;9.452;2024-02-15T13:12:20;2.17;;;0.28;;
79088;SDS011;68489;50.286;9.452;2024-02-15T13:14:45;1.17;;;0.10;;
79088;SDS011;68489;50.286;9.452;2024-02-15T13:17:10;1.93;;;0.10;;
79088;SDS011;68489;50.286;9.452;2024-02-15T13:19:36;2.23;;;0.20;;
79088;SDS011;68489;50.286;9.452;2024-02-15T13:22:01;3.23;;;0.20;;
79088;SDS011;68489;50.286;9.452;2024-02-15T13:24:26;1.80;;;0.10;;
79088;SDS011;68489;50.286;9.452;2024-02-15T13:26:52;1.23;;;0.10;;
79088;SDS011;68489;50.286;9.452;2024-02-15T13:29:17;3.10;;;0.10;;
79088;SDS011;68489;50.286;9.452;2024-02-15T13:31:42;2.13;;;0.10;;
79088;SDS011;68489;50.286;9.452;2024-02-15T13:34:08;1.10;;;0.10;;
79088;SDS011;68489;50.286;9.452;2024-02-15T13:36:34;3.10;;;0.73;;
79088;SDS011;68489;50.286;9.452;2024-02-15T13:39:01;1.58;;;0.08;;
79088;SDS011;68489;50.286;9.452;2024-02-15T13:41:29;1.58;;;0.00;;
79088;SDS011;68489;50.286;9.452;2024-02-15T13:43:54;2.55;;;0.10;;
79088;SDS011;68489;50.286;9.452;2024-02-15T13:46:20;1.33;;;0.00;;
79088;SDS011;68489;50.286;9.452;2024-02-15T13:48:45;3.03;;;0.10;;
79088;SDS011;68489;50.286;9.452;2024-02-15T13:51:10;2.53;;;0.10;;
79088;SDS011;68489;50.286;9.452;2024-02-15T13:53:36;2.07;;;0.20;;
79088;SDS011;68489;50.286;9.452;2024-02-15T13:56:01;2.97;;;0.17;;
79088;SDS011;68489;50.286;9.452;2024-02-15T13:58:27;1.08;;;0.17;;
79088;SDS011;68489;50.286;9.452;2024-02-15T14:00:53;1.17;;;0.00;;
79088;SDS011;68489;50.286;9.452;2024-02-15T14:03:18;3.25;;;0.20;;
79088;SDS011;68489;50.286;9.452;2024-02-15T14:05:46;2.47;;;0.10;;
79088;SDS011;68489;50.286;9.452;2024-02-15T14:08:14;1.42;;;0.10;;
79088;SDS011;68489;50.286;9.452;2024-02-15T14:10:40;1.48;;;0.30;;
79088;SDS011;68489;50.286;9.452;2024-02-15T14:13:06;1.23;;;0.13;;
79088;SDS011;68489;50.286;9.452;2024-02-15T14:15:32;1.90;;;0.28;;
79088;SDS011;68489;50.286;9.452;2024-02-15T14:18:05;2.70;;;0.40;;
79088;SDS011;68489;50.286;9.452;2024-02-15T14:20:31;1.92;;;0.30;;
79088;SDS011;68489;50.286;9.452;2024-02-15T14:22:56;2.33;;;0.30;;
79088;SDS011;68489;50.286;9.452;2024-02-15T14:25:22;2.10;;;0.20;;
79088;SDS011;68489;50.286;9.452;2024-02-15T14:27:48;2.45;;;0.17;;
79088;SDS011;68489;50.286;9.452;2024-02-15T14:30:13;1.83;;;0.40;;
79088;SDS011;68489;50.286;9.452;2024-02-15T14:32:58;1.83;;;0.20;;
79088;SDS011;68489;50.286;9.452;2024-02-15T14:35:28;1.52;;;0.30;;
79088;SDS011;68489;50.286;9.452;2024-02-15T14:37:55;2.70;;;0.10;;
79088;SDS011;68489;50.286;9.452;2024-02-15T14:40:23;2.78;;;0.45;;
79088;SDS011;68489;50.286;9.452;2024-02-15T14:42:48;2.60;;;0.20;;
79088;SDS011;68489;50.286;9.452;2024-02-15T14:45:14;1.55;;;0.20;;
79088;SDS011;68489;50.286;9.452;2024-02-15T14:47:39;2.47;;;0.30;;
79088;SDS011;68489;50.286;9.452;2024-02-15T14:50:07;1.40;;;0.25;;
79088;SDS011;68489;50.286;9.452;2024-02-15T14:52:34;2.67;;;0.63;;
79088;SDS011;68489;50.286;9.452;2024-02-15T14:55:01;1.65;;;0.30;;
79088;SDS011;68489;50.286;9.452;2024-02-15T14:57:30;3.20;;;0.20;;
79088;SDS011;68489;50.286;9.452;2024-02-15T14:59:56;2.78;;;0.35;;
79088;SDS011;68489;50.286;9.452;2024-02-15T15:02:21;3.37;;;0.40;;
79088;SDS011;68489;50.286;9.452;2024-02-15T15:04:47;3.22;;;0.20;;
79088;SDS011;68489;50.286;9.452;2024-02-15T15:07:23;2.58;;;0.20;;
79088;SDS011;68489;50.286;9.452;2024-02-15T15:10:07;4.88;;;1.20;;